sensor_id;sensor_type;location;lat;lon;timestamp;P1;durP1;ratioP1;P2;durP2;ratioP2
16037;SDS011;8123;50.906;6.172;2022-12-16T00:00:35;62.20;;;25.60;;
16037;SDS011;8123;50.906;6.172;2022-12-16T00:03:00;73.40;;;25.67;;
16037;SDS011;8123;50.906;6.172;2022-12-16T00:05:27;80.53;;;27.20;;
16037;SDS011;8123;50.906;6.172;2022-12-16T00:07:52;53.78;;;23.63;;
16037;SDS011;8123;50.906;6.172;2022-12-16T00:10:19;65.28;;;26.15;;
16037;SDS011;8123;50.906;6.172;2022-12-16T00:12:45;62.65;;;24.98;;
16037;SDS011;8123;50.906;6.172;2022-12-16T00:15:11;69.07;;;26.30;;
16037;SDS011;8123;50.906;6.172;2022-12-16T00:17:37;61.70;;;24.33;;
16037;SDS011;8123;50.906;6.172;2022-12-16T00:20:03;61.80;;;24.37;;
16037;SDS011;8123;50.906;6.172;2022-12-16T00:22:30;60.55;;;20.85;;
16037;SDS011;8123;50.906;6.172;2022-12-16T00:24:55;61.47;;;23.00;;
16037;SDS011;8123;50.906;6.172;2022-12-16T00:27:21;43.87;;;18.83;;
16037;SDS011;8123;50.906;6.172;2022-12-16T00:29:47;44.23;;;20.67;;
16037;SDS011;8123;50.906;6.172;2022-12-16T00:32:12;52.23;;;19.37;;
16037;SDS011;8123;50.906;6.172;2022-12-16T00:34:38;52.37;;;19.07;;
16037;SDS011;8123;50.906;6.172;2022-12-16T00:37:04;45.60;;;17.20;;
16037;SDS011;8123;50.906;6.172;2022-12-16T00:39:29;40.73;;;17.03;;
16037;SDS011;8123;50.906;6.172;2022-12-16T00:41:55;40.33;;;16.90;;
16037;SDS011;8123;50.906;6.172;2022-12-16T00:44:21;39.93;;;18.20;;
16037;SDS011;8123;50.906;6.172;2022-12-16T00:46:46;37.83;;;14.67;;
16037;SDS011;8123;50.906;6.172;2022-12-16T00:49:12;35.90;;;16.03;;
16037;SDS011;8123;50.906;6.172;2022-12-16T00:51:37;37.90;;;16.97;;
16037;SDS011;8123;50.906;6.172;2022-12-16T00:54:03;35.63;;;14.60;;
16037;SDS011;8123;50.906;6.172;2022-12-16T00:56:29;40.23;;;13.73;;
16037;SDS011;8123;50.906;6.172;2022-12-16T00:58:54;30.73;;;13.07;;
16037;SDS011;8123;50.906;6.172;2022-12-16T01:01:20;29.67;;;12.70;;
16037;SDS011;8123;50.906;6.172;2022-12-16T01:03:46;29.03;;;12.77;;
16037;SDS011;8123;50.906;6.172;2022-12-16T01:06:13;29.13;;;13.57;;
16037;SDS011;8123;50.906;6.172;2022-12-16T01:08:40;28.75;;;12.05;;
16037;SDS011;8123;50.906;6.172;2022-12-16T01:11:12;36.40;;;15.50;;
16037;SDS011;8123;50.906;6.172;2022-12-16T01:13:45;24.20;;;12.93;;
16037;SDS011;8123;50.906;6.172;2022-12-16T01:16:14;34.78;;;14.60;;
16037;SDS011;8123;50.906;6.172;2022-12-16T01:18:39;30.30;;;15.60;;
16037;SDS011;8123;50.906;6.172;2022-12-16T01:21:06;40.63;;;16.37;;
16037;SDS011;8123;50.906;6.172;2022-12-16T01:23:32;39.80;;;14.57;;
16037;SDS011;8123;50.906;6.172;2022-12-16T01:25:58;35.33;;;14.53;;
16037;SDS011;8123;50.906;6.172;2022-12-16T01:28:26;45.17;;;17.38;;
16037;SDS011;8123;50.906;6.172;2022-12-16T01:30:56;32.20;;;13.00;;
16037;SDS011;8123;50.906;6.172;2022-12-16T01:33:26;21.30;;;11.68;;
16037;SDS011;8123;50.906;6.172;2022-12-16T01:35:59;33.60;;;11.70;;
16037;SDS011;8123;50.906;6.172;2022-12-16T01:38:27;19.02;;;10.68;;
16037;SDS011;8123;50.906;6.172;2022-12-16T01:40:52;28.80;;;12.40;;
16037;SDS011;8123;50.906;6.172;2022-12-16T01:43:19;23.77;;;11.10;;
16037;SDS011;8123;50.906;6.172;2022-12-16T01:45:52;25.20;;;9.75;;
16037;SDS011;8123;50.906;6.172;2022-12-16T01:48:53;26.27;;;10.55;;
16037;SDS011;8123;50.906;6.172;2022-12-16T01:51:31;21.08;;;11.50;;
16037;SDS011;8123;50.906;6.172;2022-12-16T01:54:01;21.25;;;10.43;;
16037;SDS011;8123;50.906;6.172;2022-12-16T01:56:37;21.70;;;11.02;;
16037;SDS011;8123;50.906;6.172;2022-12-16T01:59:05;23.92;;;10.98;;
16037;SDS011;8123;50.906;6.172;2022-12-16T02:01:32;23.58;;;10.82;;
16037;SDS011;8123;50.906;6.172;2022-12-16T02:03:58;24.35;;;10.25;;
16037;SDS011;8123;50.906;6.172;2022-12-16T02:06:27;21.50;;;10.02;;
16037;SDS011;8123;50.906;6.172;2022-12-16T02:08:55;23.38;;;11.98;;
16037;SDS011;8123;50.906;6.172;2022-12-16T02:16:53;28.38;;;10.35;;
16037;SDS011;8123;50.906;6.172;2022-12-16T02:25:24;18.23;;;9.07;;
16037;SDS011;8123;50.906;6.172;2022-12-16T02:31:24;23.27;;;9.65;;
16037;SDS011;8123;50.906;6.172;2022-12-16T02:40:14;16.33;;;9.02;;
16037;SDS011;8123;50.906;6.172;2022-12-16T02:42:44;19.67;;;8.68;;
16037;SDS011;8123;50.906;6.172;2022-12-16T02:45:24;20.58;;;10.05;;
16037;SDS011;8123;50.906;6.172;2022-12-16T02:47:53;18.67;;;9.13;;
16037;SDS011;8123;50.906;6.172;2022-12-16T02:52:54;16.55;;;8.02;;
16037;SDS011;8123;50.906;6.172;2022-12-16T02:55:22;16.23;;;7.68;;
16037;SDS011;8123;50.906;6.172;2022-12-16T03:03:45;23.95;;;9.15;;
16037;SDS011;8123;50.906;6.172;2022-12-16T03:06:24;16.80;;;7.63;;
16037;SDS011;8123;50.906;6.172;2022-12-16T03:08:53;18.20;;;7.90;;
16037;SDS011;8123;50.906;6.172;2022-12-16T03:11:22;19.52;;;7.65;;
16037;SDS011;8123;50.906;6.172;2022-12-16T03:13:52;16.02;;;8.63;;
16037;SDS011;8123;50.906;6.172;2022-12-16T03:16:21;17.02;;;7.75;;
16037;SDS011;8123;50.906;6.172;2022-12-16T03:18:52;12.93;;;6.68;;
16037;SDS011;8123;50.906;6.172;2022-12-16T03:21:23;15.48;;;7.63;;
16037;SDS011;8123;50.906;6.172;2022-12-16T03:23:54;18.40;;;8.07;;
16037;SDS011;8123;50.906;6.172;2022-12-16T03:26:26;18.17;;;8.32;;
16037;SDS011;8123;50.906;6.172;2022-12-16T03:32:22;18.83;;;8.57;;
16037;SDS011;8123;50.906;6.172;2022-12-16T03:34:58;15.60;;;8.25;;
16037;SDS011;8123;50.906;6.172;2022-12-16T03:37:30;20.50;;;8.23;;
16037;SDS011;8123;50.906;6.172;2022-12-16T03:39:59;16.13;;;7.45;;
16037;SDS011;8123;50.906;6.172;2022-12-16T03:42:26;13.93;;;7.15;;
16037;SDS011;8123;50.906;6.172;2022-12-16T03:44:52;13.90;;;7.00;;
16037;SDS011;8123;50.906;6.172;2022-12-16T03:47:18;10.73;;;6.33;;
16037;SDS011;8123;50.906;6.172;2022-12-16T03:49:44;12.97;;;6.20;;
16037;SDS011;8123;50.906;6.172;2022-12-16T03:52:09;18.40;;;6.40;;
16037;SDS011;8123;50.906;6.172;2022-12-16T03:54:35;16.00;;;7.10;;
16037;SDS011;8123;50.906;6.172;2022-12-16T03:57:01;11.30;;;5.70;;
16037;SDS011;8123;50.906;6.172;2022-12-16T03:59:27;13.32;;;7.18;;
16037;SDS011;8123;50.906;6.172;2022-12-16T04:01:53;9.80;;;6.37;;
16037;SDS011;8123;50.906;6.172;2022-12-16T04:04:18;12.80;;;7.03;;
16037;SDS011;8123;50.906;6.172;2022-12-16T04:06:44;12.88;;;6.25;;
16037;SDS011;8123;50.906;6.172;2022-12-16T04:09:30;16.95;;;6.55;;
16037;SDS011;8123;50.906;6.172;2022-12-16T04:11:55;14.10;;;6.40;;
16037;SDS011;8123;50.906;6.172;2022-12-16T04:14:40;10.00;;;5.70;;
16037;SDS011;8123;50.906;6.172;2022-12-16T04:17:24;11.02;;;6.25;;
16037;SDS011;8123;50.906;6.172;2022-12-16T04:20:12;11.90;;;6.70;;
16037;SDS011;8123;50.906;6.172;2022-12-16T04:22:59;9.95;;;6.18;;
16037;SDS011;8123;50.906;6.172;2022-12-16T04:25:45;15.98;;;6.75;;
16037;SDS011;8123;50.906;6.172;2022-12-16T04:28:11;16.80;;;5.78;;
16037;SDS011;8123;50.906;6.172;2022-12-16T04:30:36;9.37;;;5.93;;
16037;SDS011;8123;50.906;6.172;2022-12-16T04:33:03;8.93;;;5.53;;
16037;SDS011;8123;50.906;6.172;2022-12-16T04:35:51;10.63;;;5.20;;
16037;SDS011;8123;50.906;6.172;2022-12-16T04:38:35;10.35;;;5.35;;
16037;SDS011;8123;50.906;6.172;2022-12-16T04:41:19;15.27;;;6.40;;
16037;SDS011;8123;50.906;6.172;2022-12-16T04:44:04;16.02;;;5.32;;
16037;SDS011;8123;50.906;6.172;2022-12-16T04:46:48;13.23;;;5.38;;
16037;SDS011;8123;50.906;6.172;2022-12-16T04:49:32;9.40;;;6.10;;
16037;SDS011;8123;50.906;6.172;2022-12-16T04:52:16;9.50;;;5.32;;
16037;SDS011;8123;50.906;6.172;2022-12-16T04:55:01;9.55;;;4.93;;
16037;SDS011;8123;50.906;6.172;2022-12-16T04:57:50;12.63;;;6.13;;
16037;SDS011;8123;50.906;6.172;2022-12-16T05:00:34;15.02;;;5.57;;
16037;SDS011;8123;50.906;6.172;2022-12-16T05:03:38;15.18;;;5.30;;
16037;SDS011;8123;50.906;6.172;2022-12-16T05:06:22;10.60;;;5.18;;
16037;SDS011;8123;50.906;6.172;2022-12-16T05:09:06;8.23;;;4.80;;
16037;SDS011;8123;50.906;6.172;2022-12-16T05:11:51;16.52;;;5.90;;
16037;SDS011;8123;50.906;6.172;2022-12-16T05:14:35;10.10;;;5.80;;
16037;SDS011;8123;50.906;6.172;2022-12-16T05:17:20;7.93;;;5.22;;
16037;SDS011;8123;50.906;6.172;2022-12-16T05:20:04;12.88;;;6.30;;
16037;SDS011;8123;50.906;6.172;2022-12-16T05:22:49;11.15;;;5.93;;
16037;SDS011;8123;50.906;6.172;2022-12-16T05:25:33;17.15;;;6.38;;
16037;SDS011;8123;50.906;6.172;2022-12-16T05:28:17;13.15;;;6.28;;
16037;SDS011;8123;50.906;6.172;2022-12-16T05:31:02;9.10;;;5.03;;
16037;SDS011;8123;50.906;6.172;2022-12-16T05:33:46;10.23;;;5.40;;
16037;SDS011;8123;50.906;6.172;2022-12-16T05:36:30;14.45;;;6.20;;
16037;SDS011;8123;50.906;6.172;2022-12-16T05:39:15;15.75;;;6.00;;
16037;SDS011;8123;50.906;6.172;2022-12-16T05:41:59;14.70;;;6.75;;
16037;SDS011;8123;50.906;6.172;2022-12-16T05:44:43;17.55;;;7.63;;
16037;SDS011;8123;50.906;6.172;2022-12-16T05:47:27;12.77;;;5.75;;
16037;SDS011;8123;50.906;6.172;2022-12-16T05:50:11;17.75;;;6.00;;
16037;SDS011;8123;50.906;6.172;2022-12-16T05:52:56;11.27;;;6.55;;
16037;SDS011;8123;50.906;6.172;2022-12-16T05:55:41;13.13;;;6.07;;
16037;SDS011;8123;50.906;6.172;2022-12-16T05:58:25;9.07;;;5.32;;
16037;SDS011;8123;50.906;6.172;2022-12-16T06:01:10;18.05;;;5.85;;
16037;SDS011;8123;50.906;6.172;2022-12-16T06:03:55;10.93;;;5.70;;
16037;SDS011;8123;50.906;6.172;2022-12-16T06:06:39;15.02;;;6.18;;
16037;SDS011;8123;50.906;6.172;2022-12-16T06:09:24;12.80;;;6.38;;
16037;SDS011;8123;50.906;6.172;2022-12-16T06:12:08;14.63;;;5.80;;
16037;SDS011;8123;50.906;6.172;2022-12-16T06:14:52;13.82;;;5.90;;
16037;SDS011;8123;50.906;6.172;2022-12-16T06:17:36;11.90;;;5.88;;
16037;SDS011;8123;50.906;6.172;2022-12-16T06:20:25;11.48;;;5.10;;
16037;SDS011;8123;50.906;6.172;2022-12-16T06:23:09;10.07;;;4.85;;
16037;SDS011;8123;50.906;6.172;2022-12-16T06:25:54;13.57;;;6.07;;
16037;SDS011;8123;50.906;6.172;2022-12-16T06:28:39;15.45;;;6.50;;
16037;SDS011;8123;50.906;6.172;2022-12-16T06:31:23;11.35;;;5.47;;
16037;SDS011;8123;50.906;6.172;2022-12-16T06:34:07;11.55;;;5.35;;
16037;SDS011;8123;50.906;6.172;2022-12-16T06:36:51;13.43;;;5.72;;
16037;SDS011;8123;50.906;6.172;2022-12-16T06:39:35;9.75;;;6.20;;
16037;SDS011;8123;50.906;6.172;2022-12-16T06:42:19;13.57;;;5.97;;
16037;SDS011;8123;50.906;6.172;2022-12-16T06:45:03;11.50;;;5.95;;
16037;SDS011;8123;50.906;6.172;2022-12-16T06:47:48;9.13;;;6.15;;
16037;SDS011;8123;50.906;6.172;2022-12-16T06:50:32;26.83;;;5.85;;
16037;SDS011;8123;50.906;6.172;2022-12-16T06:53:16;13.98;;;6.57;;
16037;SDS011;8123;50.906;6.172;2022-12-16T06:56:00;13.07;;;6.85;;
16037;SDS011;8123;50.906;6.172;2022-12-16T06:58:44;12.23;;;6.43;;
16037;SDS011;8123;50.906;6.172;2022-12-16T07:01:28;22.45;;;10.05;;
16037;SDS011;8123;50.906;6.172;2022-12-16T07:04:12;12.40;;;6.97;;
16037;SDS011;8123;50.906;6.172;2022-12-16T07:06:56;11.50;;;7.20;;
16037;SDS011;8123;50.906;6.172;2022-12-16T07:09:40;13.68;;;6.38;;
16037;SDS011;8123;50.906;6.172;2022-12-16T07:12:24;16.73;;;7.15;;
16037;SDS011;8123;50.906;6.172;2022-12-16T07:15:09;9.93;;;6.38;;
16037;SDS011;8123;50.906;6.172;2022-12-16T07:17:54;18.33;;;6.88;;
16037;SDS011;8123;50.906;6.172;2022-12-16T07:20:38;9.45;;;6.20;;
16037;SDS011;8123;50.906;6.172;2022-12-16T07:23:22;13.35;;;5.80;;
16037;SDS011;8123;50.906;6.172;2022-12-16T07:26:06;11.38;;;5.90;;
16037;SDS011;8123;50.906;6.172;2022-12-16T07:28:50;9.27;;;5.63;;
16037;SDS011;8123;50.906;6.172;2022-12-16T07:31:35;10.90;;;6.28;;
16037;SDS011;8123;50.906;6.172;2022-12-16T07:34:19;11.88;;;7.30;;
16037;SDS011;8123;50.906;6.172;2022-12-16T07:37:03;13.30;;;6.43;;
16037;SDS011;8123;50.906;6.172;2022-12-16T07:39:47;14.32;;;6.65;;
16037;SDS011;8123;50.906;6.172;2022-12-16T07:42:31;12.18;;;6.82;;
16037;SDS011;8123;50.906;6.172;2022-12-16T07:45:15;13.73;;;6.75;;
16037;SDS011;8123;50.906;6.172;2022-12-16T07:47:59;19.92;;;8.32;;
16037;SDS011;8123;50.906;6.172;2022-12-16T07:50:44;11.25;;;6.43;;
16037;SDS011;8123;50.906;6.172;2022-12-16T07:53:28;12.60;;;7.30;;
16037;SDS011;8123;50.906;6.172;2022-12-16T07:56:12;13.80;;;7.30;;
16037;SDS011;8123;50.906;6.172;2022-12-16T07:58:56;18.17;;;8.63;;
16037;SDS011;8123;50.906;6.172;2022-12-16T08:01:41;12.73;;;7.15;;
16037;SDS011;8123;50.906;6.172;2022-12-16T08:04:25;16.60;;;8.20;;
16037;SDS011;8123;50.906;6.172;2022-12-16T08:07:10;23.25;;;9.27;;
16037;SDS011;8123;50.906;6.172;2022-12-16T08:09:54;15.43;;;8.55;;
16037;SDS011;8123;50.906;6.172;2022-12-16T08:12:38;19.00;;;8.73;;
16037;SDS011;8123;50.906;6.172;2022-12-16T08:15:22;16.83;;;8.13;;
16037;SDS011;8123;50.906;6.172;2022-12-16T08:18:06;16.15;;;8.02;;
16037;SDS011;8123;50.906;6.172;2022-12-16T08:20:50;19.40;;;9.23;;
16037;SDS011;8123;50.906;6.172;2022-12-16T08:23:34;16.70;;;9.00;;
16037;SDS011;8123;50.906;6.172;2022-12-16T08:26:19;18.73;;;9.88;;
16037;SDS011;8123;50.906;6.172;2022-12-16T08:29:03;22.85;;;10.63;;
16037;SDS011;8123;50.906;6.172;2022-12-16T08:31:47;21.88;;;10.15;;
16037;SDS011;8123;50.906;6.172;2022-12-16T08:34:31;30.65;;;13.43;;
16037;SDS011;8123;50.906;6.172;2022-12-16T08:37:15;35.67;;;11.82;;
16037;SDS011;8123;50.906;6.172;2022-12-16T08:40:00;32.55;;;11.90;;
16037;SDS011;8123;50.906;6.172;2022-12-16T08:42:44;30.20;;;12.38;;
16037;SDS011;8123;50.906;6.172;2022-12-16T08:45:28;45.33;;;15.32;;
16037;SDS011;8123;50.906;6.172;2022-12-16T08:48:12;42.65;;;15.25;;
16037;SDS011;8123;50.906;6.172;2022-12-16T08:50:59;52.00;;;18.52;;
16037;SDS011;8123;50.906;6.172;2022-12-16T08:53:44;55.33;;;18.58;;
16037;SDS011;8123;50.906;6.172;2022-12-16T08:56:28;49.60;;;17.75;;
16037;SDS011;8123;50.906;6.172;2022-12-16T08:59:13;64.30;;;20.95;;
16037;SDS011;8123;50.906;6.172;2022-12-16T09:01:57;66.93;;;24.15;;
16037;SDS011;8123;50.906;6.172;2022-12-16T09:04:41;83.22;;;21.88;;
16037;SDS011;8123;50.906;6.172;2022-12-16T09:07:26;91.57;;;22.50;;
16037;SDS011;8123;50.906;6.172;2022-12-16T09:10:10;90.40;;;19.73;;
16037;SDS011;8123;50.906;6.172;2022-12-16T09:13:03;75.00;;;20.42;;
16037;SDS011;8123;50.906;6.172;2022-12-16T09:15:57;71.72;;;20.50;;
16037;SDS011;8123;50.906;6.172;2022-12-16T09:18:41;99.35;;;24.27;;
16037;SDS011;8123;50.906;6.172;2022-12-16T09:21:25;97.88;;;25.17;;
16037;SDS011;8123;50.906;6.172;2022-12-16T09:24:09;123.63;;;29.00;;
16037;SDS011;8123;50.906;6.172;2022-12-16T09:26:54;124.47;;;28.58;;
16037;SDS011;8123;50.906;6.172;2022-12-16T09:29:38;116.07;;;31.73;;
16037;SDS011;8123;50.906;6.172;2022-12-16T09:32:22;114.95;;;27.08;;
16037;SDS011;8123;50.906;6.172;2022-12-16T09:35:06;79.38;;;23.75;;
16037;SDS011;8123;50.906;6.172;2022-12-16T09:37:51;119.22;;;25.98;;
16037;SDS011;8123;50.906;6.172;2022-12-16T09:40:36;105.63;;;26.83;;
16037;SDS011;8123;50.906;6.172;2022-12-16T09:52:18;141.05;;;29.17;;
16037;SDS011;8123;50.906;6.172;2022-12-16T09:55:04;149.02;;;27.77;;
16037;SDS011;8123;50.906;6.172;2022-12-16T09:57:52;165.82;;;35.75;;
16037;SDS011;8123;50.906;6.172;2022-12-16T10:00:36;185.32;;;36.90;;
16037;SDS011;8123;50.906;6.172;2022-12-16T10:03:22;218.30;;;35.65;;
16037;SDS011;8123;50.906;6.172;2022-12-16T10:06:13;191.68;;;38.70;;
16037;SDS011;8123;50.906;6.172;2022-12-16T10:09:27;173.20;;;34.33;;
16037;SDS011;8123;50.906;6.172;2022-12-16T10:12:38;169.82;;;38.10;;
16037;SDS011;8123;50.906;6.172;2022-12-16T10:25:18;165.73;;;36.60;;
16037;SDS011;8123;50.906;6.172;2022-12-16T10:28:18;211.05;;;36.75;;
16037;SDS011;8123;50.906;6.172;2022-12-16T10:31:15;193.35;;;36.05;;
16037;SDS011;8123;50.906;6.172;2022-12-16T10:34:00;237.07;;;38.70;;
16037;SDS011;8123;50.906;6.172;2022-12-16T10:36:45;186.52;;;36.08;;
16037;SDS011;8123;50.906;6.172;2022-12-16T10:39:34;185.77;;;36.25;;
16037;SDS011;8123;50.906;6.172;2022-12-16T10:42:25;164.55;;;34.45;;
16037;SDS011;8123;50.906;6.172;2022-12-16T10:45:16;198.35;;;32.97;;
16037;SDS011;8123;50.906;6.172;2022-12-16T10:48:05;177.43;;;36.53;;
16037;SDS011;8123;50.906;6.172;2022-12-16T10:50:53;141.13;;;33.55;;
16037;SDS011;8123;50.906;6.172;2022-12-16T10:53:37;156.50;;;34.28;;
16037;SDS011;8123;50.906;6.172;2022-12-16T10:59:32;201.07;;;37.55;;
16037;SDS011;8123;50.906;6.172;2022-12-16T11:02:25;152.65;;;31.40;;
16037;SDS011;8123;50.906;6.172;2022-12-16T11:08:26;193.52;;;35.22;;
16037;SDS011;8123;50.906;6.172;2022-12-16T11:20:05;166.70;;;33.35;;
16037;SDS011;8123;50.906;6.172;2022-12-16T11:26:14;134.32;;;36.50;;
16037;SDS011;8123;50.906;6.172;2022-12-16T11:29:03;173.45;;;34.95;;
16037;SDS011;8123;50.906;6.172;2022-12-16T11:31:49;153.43;;;35.15;;
16037;SDS011;8123;50.906;6.172;2022-12-16T11:34:38;158.73;;;34.53;;
16037;SDS011;8123;50.906;6.172;2022-12-16T11:37:24;175.80;;;37.63;;
16037;SDS011;8123;50.906;6.172;2022-12-16T11:40:12;142.55;;;36.40;;
16037;SDS011;8123;50.906;6.172;2022-12-16T11:43:00;164.38;;;37.63;;
16037;SDS011;8123;50.906;6.172;2022-12-16T11:45:46;174.77;;;37.10;;
16037;SDS011;8123;50.906;6.172;2022-12-16T11:51:55;170.23;;;38.40;;
16037;SDS011;8123;50.906;6.172;2022-12-16T11:54:48;178.65;;;40.33;;
16037;SDS011;8123;50.906;6.172;2022-12-16T11:57:46;180.90;;;42.75;;
16037;SDS011;8123;50.906;6.172;2022-12-16T12:00:33;180.15;;;39.28;;
16037;SDS011;8123;50.906;6.172;2022-12-16T12:03:28;187.75;;;42.45;;
16037;SDS011;8123;50.906;6.172;2022-12-16T12:09:26;179.13;;;43.22;;
16037;SDS011;8123;50.906;6.172;2022-12-16T12:24:26;169.07;;;46.95;;
16037;SDS011;8123;50.906;6.172;2022-12-16T12:27:37;183.27;;;44.42;;
16037;SDS011;8123;50.906;6.172;2022-12-16T12:30:28;169.55;;;42.50;;
16037;SDS011;8123;50.906;6.172;2022-12-16T12:33:27;184.80;;;43.10;;
16037;SDS011;8123;50.906;6.172;2022-12-16T12:36:50;187.50;;;44.50;;
16037;SDS011;8123;50.906;6.172;2022-12-16T12:39:45;178.27;;;45.28;;
16037;SDS011;8123;50.906;6.172;2022-12-16T12:55:07;161.52;;;43.17;;
16037;SDS011;8123;50.906;6.172;2022-12-16T12:57:58;157.70;;;41.90;;
16037;SDS011;8123;50.906;6.172;2022-12-16T13:00:49;153.65;;;43.95;;
16037;SDS011;8123;50.906;6.172;2022-12-16T13:03:37;136.30;;;39.40;;
16037;SDS011;8123;50.906;6.172;2022-12-16T13:06:27;164.20;;;41.47;;
16037;SDS011;8123;50.906;6.172;2022-12-16T13:09:21;153.07;;;40.88;;
16037;SDS011;8123;50.906;6.172;2022-12-16T13:15:09;191.00;;;45.53;;
16037;SDS011;8123;50.906;6.172;2022-12-16T13:20:45;171.95;;;48.00;;
16037;SDS011;8123;50.906;6.172;2022-12-16T13:23:37;176.05;;;44.20;;
16037;SDS011;8123;50.906;6.172;2022-12-16T13:26:25;176.07;;;42.25;;
16037;SDS011;8123;50.906;6.172;2022-12-16T13:29:22;163.63;;;42.90;;
16037;SDS011;8123;50.906;6.172;2022-12-16T13:40:53;201.68;;;45.70;;
16037;SDS011;8123;50.906;6.172;2022-12-16T13:46:48;167.77;;;45.17;;
16037;SDS011;8123;50.906;6.172;2022-12-16T13:55:43;186.13;;;43.38;;
16037;SDS011;8123;50.906;6.172;2022-12-16T13:58:41;138.93;;;39.03;;
16037;SDS011;8123;50.906;6.172;2022-12-16T14:04:33;164.90;;;44.13;;
16037;SDS011;8123;50.906;6.172;2022-12-16T14:07:20;159.35;;;40.83;;
16037;SDS011;8123;50.906;6.172;2022-12-16T14:19:29;144.95;;;43.95;;
16037;SDS011;8123;50.906;6.172;2022-12-16T14:25:41;146.40;;;41.67;;
16037;SDS011;8123;50.906;6.172;2022-12-16T14:28:34;127.47;;;38.28;;
16037;SDS011;8123;50.906;6.172;2022-12-16T14:31:23;149.43;;;41.28;;
16037;SDS011;8123;50.906;6.172;2022-12-16T14:34:21;162.25;;;42.80;;
16037;SDS011;8123;50.906;6.172;2022-12-16T14:37:13;145.85;;;39.35;;
16037;SDS011;8123;50.906;6.172;2022-12-16T14:39:58;128.77;;;37.50;;
16037;SDS011;8123;50.906;6.172;2022-12-16T14:42:42;133.25;;;40.40;;
16037;SDS011;8123;50.906;6.172;2022-12-16T14:45:28;116.35;;;37.35;;
16037;SDS011;8123;50.906;6.172;2022-12-16T14:48:18;133.00;;;36.80;;
16037;SDS011;8123;50.906;6.172;2022-12-16T14:54:17;126.60;;;38.25;;
16037;SDS011;8123;50.906;6.172;2022-12-16T14:59:58;136.95;;;39.20;;
16037;SDS011;8123;50.906;6.172;2022-12-16T15:02:46;122.50;;;37.85;;
16037;SDS011;8123;50.906;6.172;2022-12-16T15:05:34;111.45;;;37.10;;
16037;SDS011;8123;50.906;6.172;2022-12-16T15:08:20;150.80;;;39.92;;
16037;SDS011;8123;50.906;6.172;2022-12-16T15:11:05;120.75;;;38.08;;
16037;SDS011;8123;50.906;6.172;2022-12-16T15:13:53;114.18;;;35.90;;
16037;SDS011;8123;50.906;6.172;2022-12-16T15:16:41;113.35;;;36.88;;
16037;SDS011;8123;50.906;6.172;2022-12-16T15:19:27;127.13;;;36.85;;
16037;SDS011;8123;50.906;6.172;2022-12-16T15:22:19;135.55;;;39.30;;
16037;SDS011;8123;50.906;6.172;2022-12-16T15:25:03;104.32;;;34.67;;
16037;SDS011;8123;50.906;6.172;2022-12-16T15:27:53;125.43;;;36.15;;
16037;SDS011;8123;50.906;6.172;2022-12-16T15:30:39;106.20;;;35.78;;
16037;SDS011;8123;50.906;6.172;2022-12-16T15:33:29;140.27;;;39.65;;
16037;SDS011;8123;50.906;6.172;2022-12-16T15:36:30;127.18;;;36.78;;
16037;SDS011;8123;50.906;6.172;2022-12-16T15:39:25;104.18;;;34.47;;
16037;SDS011;8123;50.906;6.172;2022-12-16T15:48:13;111.57;;;33.80;;
16037;SDS011;8123;50.906;6.172;2022-12-16T15:51:22;110.22;;;35.25;;
16037;SDS011;8123;50.906;6.172;2022-12-16T15:54:17;117.43;;;33.53;;
16037;SDS011;8123;50.906;6.172;2022-12-16T16:00:18;150.10;;;39.45;;
16037;SDS011;8123;50.906;6.172;2022-12-16T16:03:16;116.93;;;33.03;;
16037;SDS011;8123;50.906;6.172;2022-12-16T16:09:28;122.97;;;36.65;;
16037;SDS011;8123;50.906;6.172;2022-12-16T16:12:13;118.38;;;36.92;;
16037;SDS011;8123;50.906;6.172;2022-12-16T16:14:59;124.05;;;37.92;;
16037;SDS011;8123;50.906;6.172;2022-12-16T16:17:43;124.00;;;36.40;;
16037;SDS011;8123;50.906;6.172;2022-12-16T16:20:30;110.05;;;38.30;;
16037;SDS011;8123;50.906;6.172;2022-12-16T16:23:15;131.20;;;39.53;;
16037;SDS011;8123;50.906;6.172;2022-12-16T16:25:58;113.53;;;35.10;;
16037;SDS011;8123;50.906;6.172;2022-12-16T16:28:44;104.82;;;33.40;;
16037;SDS011;8123;50.906;6.172;2022-12-16T16:31:28;116.15;;;34.05;;
16037;SDS011;8123;50.906;6.172;2022-12-16T16:34:12;125.05;;;35.00;;
16037;SDS011;8123;50.906;6.172;2022-12-16T16:36:56;109.18;;;31.52;;
16037;SDS011;8123;50.906;6.172;2022-12-16T16:39:41;111.03;;;33.22;;
16037;SDS011;8123;50.906;6.172;2022-12-16T16:42:26;138.55;;;36.47;;
16037;SDS011;8123;50.906;6.172;2022-12-16T16:45:12;101.55;;;34.53;;
16037;SDS011;8123;50.906;6.172;2022-12-16T16:48:30;116.43;;;34.75;;
16037;SDS011;8123;50.906;6.172;2022-12-16T16:51:10;122.47;;;35.67;;
16037;SDS011;8123;50.906;6.172;2022-12-16T16:53:54;126.55;;;35.97;;
16037;SDS011;8123;50.906;6.172;2022-12-16T16:56:38;124.93;;;37.03;;
16037;SDS011;8123;50.906;6.172;2022-12-16T16:59:22;119.88;;;36.53;;
16037;SDS011;8123;50.906;6.172;2022-12-16T17:02:14;111.97;;;37.15;;
16037;SDS011;8123;50.906;6.172;2022-12-16T17:05:01;119.10;;;36.95;;
16037;SDS011;8123;50.906;6.172;2022-12-16T17:07:46;101.95;;;34.28;;
16037;SDS011;8123;50.906;6.172;2022-12-16T17:10:30;123.18;;;34.25;;
16037;SDS011;8123;50.906;6.172;2022-12-16T17:13:14;116.65;;;34.13;;
16037;SDS011;8123;50.906;6.172;2022-12-16T17:15:58;128.23;;;37.17;;
16037;SDS011;8123;50.906;6.172;2022-12-16T17:18:42;118.35;;;36.00;;
16037;SDS011;8123;50.906;6.172;2022-12-16T17:21:27;129.88;;;35.72;;
16037;SDS011;8123;50.906;6.172;2022-12-16T17:24:11;120.20;;;34.85;;
16037;SDS011;8123;50.906;6.172;2022-12-16T17:26:55;118.28;;;35.58;;
16037;SDS011;8123;50.906;6.172;2022-12-16T17:29:39;138.00;;;37.60;;
16037;SDS011;8123;50.906;6.172;2022-12-16T17:32:23;141.50;;;36.45;;
16037;SDS011;8123;50.906;6.172;2022-12-16T17:35:09;119.13;;;38.33;;
16037;SDS011;8123;50.906;6.172;2022-12-16T17:37:54;136.32;;;38.35;;
16037;SDS011;8123;50.906;6.172;2022-12-16T17:40:38;136.00;;;38.03;;
16037;SDS011;8123;50.906;6.172;2022-12-16T17:43:22;145.73;;;40.42;;
16037;SDS011;8123;50.906;6.172;2022-12-16T17:46:08;149.10;;;41.05;;
16037;SDS011;8123;50.906;6.172;2022-12-16T17:48:54;150.70;;;39.92;;
16037;SDS011;8123;50.906;6.172;2022-12-16T17:51:39;122.82;;;37.95;;
16037;SDS011;8123;50.906;6.172;2022-12-16T17:54:24;132.50;;;37.10;;
16037;SDS011;8123;50.906;6.172;2022-12-16T17:57:09;136.32;;;39.35;;
16037;SDS011;8123;50.906;6.172;2022-12-16T17:59:53;149.82;;;40.50;;
16037;SDS011;8123;50.906;6.172;2022-12-16T18:02:38;137.25;;;40.55;;
16037;SDS011;8123;50.906;6.172;2022-12-16T18:05:23;163.95;;;42.33;;
16037;SDS011;8123;50.906;6.172;2022-12-16T18:08:07;177.98;;;42.90;;
16037;SDS011;8123;50.906;6.172;2022-12-16T18:10:53;135.70;;;41.60;;
16037;SDS011;8123;50.906;6.172;2022-12-16T18:13:38;137.52;;;40.65;;
16037;SDS011;8123;50.906;6.172;2022-12-16T18:16:22;166.15;;;41.40;;
16037;SDS011;8123;50.906;6.172;2022-12-16T18:19:09;148.50;;;40.35;;
16037;SDS011;8123;50.906;6.172;2022-12-16T18:21:54;137.18;;;39.80;;
16037;SDS011;8123;50.906;6.172;2022-12-16T18:24:38;127.10;;;39.20;;
16037;SDS011;8123;50.906;6.172;2022-12-16T18:27:22;123.60;;;38.30;;
16037;SDS011;8123;50.906;6.172;2022-12-16T18:30:06;116.55;;;37.47;;
16037;SDS011;8123;50.906;6.172;2022-12-16T18:32:51;126.05;;;38.90;;
16037;SDS011;8123;50.906;6.172;2022-12-16T18:35:35;104.90;;;35.13;;
16037;SDS011;8123;50.906;6.172;2022-12-16T18:38:19;99.93;;;34.40;;
16037;SDS011;8123;50.906;6.172;2022-12-16T18:41:04;102.90;;;35.35;;